Time;durP1;ratioP1;P1;durP2;ratioP2;P2;SDS_P1;SDS_P2;PMS_P1;PMS_P2;Temp;Humidity;BMP_temperature;BMP_pressure;BME280_temperature;BME280_humidity;BME280_pressure;Samples;Min_cycle;Max_cycle;Signal;HPM_P1;HPM_P2
2023/06/14 00:00:05;;;;;;;;;;;20.30;99.90;20.20;98804.00;;;;344927;28;82410;-95
2023/06/14 00:00:18;;;;;;;;;;;20.20;99.90;20.20;98805.00;;;;347799;28;86570;-96
2023/06/14 00:00:34;;;;;;;;;;;20.20;99.90;20.30;98801.00;;;;346467;28;82248;-96
2023/06/14 00:00:50;;;;;;;;;;;20.20;99.90;20.30;98807.00;;;;346590;28;86520;-94
2023/06/14 00:01:05;;;;;;;;;;;20.30;99.90;20.30;98804.00;;;;347981;28;82477;-95
2023/06/14 00:01:21;;;;;;;;;;;20.20;99.90;20.30;98810.00;;;;346680;28;86450;-95
2023/06/14 00:01:35;;;;;;;;;;;20.20;99.90;20.30;98808.00;;;;346535;28;82551;-95
2023/06/14 00:01:48;;;;;;;;;;;20.20;99.90;20.20;98802.00;;;;345283;28;87807;-95
2023/06/14 00:02:00;;;;;;;;;;;20.20;99.90;20.20;98800.00;;;;346626;28;82461;-95
2023/06/14 00:02:14;;;;;;;;;;;20.20;99.90;20.30;98802.00;;;;346692;28;86555;-95
2023/06/14 00:02:31;;;;;;;;;;;20.20;99.90;20.20;98801.00;;;;348269;28;82466;-94
2023/06/14 00:02:45;;;;;;;;;;;20.20;99.90;20.30;98806.00;;;;346560;28;86539;-95
2023/06/14 00:02:58;;;;;;;;;;;20.20;99.90;20.30;98809.00;;;;348429;28;82634;-94
2023/06/14 00:03:11;;;;;;;;;;;20.20;99.90;20.40;98805.00;;;;347512;28;83507;-94
2023/06/14 00:03:25;;;;;;;;;;;20.20;99.90;20.40;98802.00;;;;348837;27;82565;-94
2023/06/14 00:03:38;;;;;;;;;;;20.20;99.90;20.30;98805.00;;;;348911;28;85034;-95
2023/06/14 00:03:58;;;;;;;;;;;20.20;99.90;20.30;98797.00;;;;347615;28;82617;-95
2023/06/14 00:04:25;;;;;;;;;;;20.20;99.90;20.30;98805.00;;;;347322;28;84932;-94
2023/06/14 00:04:39;;;;;;;;;;;20.20;99.90;20.20;98798.00;;;;347431;28;82484;-95
2023/06/14 00:04:53;;;;;;;;;;;20.20;99.90;20.10;98800.00;;;;348585;28;86115;-94
2023/06/14 00:05:18;;;;;;;;;;;20.20;99.90;20.10;98796.00;;;;344900;28;82559;-96
2023/06/14 00:05:33;;;;;;;;;;;20.20;99.90;20.20;98797.00;;;;347275;28;85465;-94
2023/06/14 00:05:58;;;;;;;;;;;20.20;99.90;20.20;98800.00;;;;345367;28;82746;-95
2023/06/14 00:06:18;;;;;;;;;;;20.20;99.90;20.20;98802.00;;;;347103;28;86231;-93
2023/06/14 00:06:33;;;;;;;;;;;20.20;99.90;20.20;98792.00;;;;348652;28;82590;-94
2023/06/14 00:06:59;;;;;;;;;;;20.20;99.90;20.20;98802.00;;;;346402;28;84428;-94
2023/06/14 00:07:13;;;;;;;;;;;20.20;99.90;20.10;98801.00;;;;347681;28;82613;-95
2023/06/14 00:07:38;;;;;;;;;;;20.20;99.90;20.20;98799.00;;;;346517;28;86307;-95
2023/06/14 00:07:53;;;;;;;;;;;20.10;99.90;20.20;98796.00;;;;347812;28;82553;-94
2023/06/14 00:08:07;;;;;;;;;;;20.20;99.90;20.30;98807.00;;;;345029;28;85708;-95
2023/06/14 00:08:22;;;;;;;;;;;20.20;99.90;20.30;98806.00;;;;346307;28;82576;-95
2023/06/14 00:08:34;;;;;;;;;;;20.20;99.90;20.20;98797.00;;;;346444;28;86624;-94
2023/06/14 00:09:00;;;;;;;;;;;20.20;99.90;20.20;98800.00;;;;346584;28;82407;-94
2023/06/14 00:09:13;;;;;;;;;;;20.20;99.90;20.10;98799.00;;;;343800;28;85703;-95
2023/06/14 00:09:25;;;;;;;;;;;20.20;99.90;20.20;98802.00;;;;346606;28;82529;-95
2023/06/14 00:09:50;;;;;;;;;;;20.20;99.90;20.20;98805.00;;;;345683;28;85208;-94
2023/06/14 00:10:16;;;;;;;;;;;20.20;99.90;20.30;98807.00;;;;346403;28;82397;-95
2023/06/14 00:10:31;;;;;;;;;;;20.20;99.90;20.30;98800.00;;;;344959;28;85967;-95
2023/06/14 00:10:43;;;;;;;;;;;20.20;99.90;20.10;98800.00;;;;345129;28;83123;-95
2023/06/14 00:10:56;;;;;;;;;;;20.10;99.90;20.10;98802.00;;;;348007;27;83510;-95
2023/06/14 00:11:08;;;;;;;;;;;20.10;99.90;20.00;98794.00;;;;345209;28;82470;-94
2023/06/14 00:11:23;;;;;;;;;;;20.10;99.90;20.00;98792.00;;;;349202;27;84805;-95
2023/06/14 00:11:35;;;;;;;;;;;20.10;99.90;20.00;98796.00;;;;348032;28;82550;-95
2023/06/14 00:11:47;;;;;;;;;;;20.10;99.90;20.00;98792.00;;;;348061;28;85349;-94
2023/06/14 00:12:08;;;;;;;;;;;20.10;99.90;20.00;98801.00;;;;348040;28;82438;-95
2023/06/14 00:12:34;;;;;;;;;;;20.10;99.90;20.00;98798.00;;;;343479;28;83970;-95
2023/06/14 00:12:47;;;;;;;;;;;20.10;99.90;19.90;98797.00;;;;348333;28;82371;-93
2023/06/14 00:13:14;;;;;;;;;;;20.10;99.90;20.10;98805.00;;;;345865;28;85350;-94
2023/06/14 00:13:27;;;;;;;;;;;20.10;99.90;20.10;98802.00;;;;346729;28;82539;-95
2023/06/14 00:13:52;;;;;;;;;;;20.10;99.90;20.10;98797.00;;;;345832;28;84550;-95
2023/06/14 00:14:18;;;;;;;;;;;20.00;99.90;20.20;98797.00;;;;343287;28;82647;-94
2023/06/14 00:14:44;;;;;;;;;;;20.10;99.90;20.10;98801.00;;;;343334;28;85824;-95
2023/06/14 00:15:10;;;;;;;;;;;20.10;99.90;20.00;98797.00;;;;348071;28;82490;-94
2023/06/14 00:15:35;;;;;;;;;;;20.00;99.90;20.00;98802.00;;;;346494;28;85233;-95
2023/06/14 00:16:04;;;;;;;;;;;20.00;99.90;19.90;98797.00;;;;345822;28;82582;-94
2023/06/14 00:16:17;;;;;;;;;;;20.00;99.90;20.00;98802.00;;;;345028;28;85318;-96
2023/06/14 00:16:29;;;;;;;;;;;20.00;99.90;20.00;98794.00;;;;346128;28;82454;-95
2023/06/14 00:16:45;;;;;;;;;;;20.00;99.90;20.00;98788.00;;;;345829;28;84647;-96
2023/06/14 00:16:58;;;;;;;;;;;20.00;99.90;19.90;98797.00;;;;346185;28;82401;-94
2023/06/14 00:17:10;;;;;;;;;;;20.00;99.90;20.10;98799.00;;;;344386;28;85722;-95
2023/06/14 00:17:23;;;;;;;;;;;20.00;99.90;20.10;98796.00;;;;344811;28;82356;-94
2023/06/14 00:17:36;;;;;;;;;;;20.00;99.90;20.10;98793.00;;;;346024;28;86433;-95
2023/06/14 00:17:48;;;;;;;;;;;20.00;99.90;20.20;98795.00;;;;346016;28;82620;-95
2023/06/14 00:18:01;;;;;;;;;;;20.00;99.90;20.10;98794.00;;;;347501;28;87262;-94
2023/06/14 00:18:13;;;;;;;;;;;20.00;99.90;20.10;98794.00;;;;344812;28;82476;-94
2023/06/14 00:18:26;;;;;;;;;;;20.00;99.90;20.10;98781.00;;;;347337;28;86422;-95
2023/06/14 00:18:38;;;;;;;;;;;20.00;99.90;20.10;98791.00;;;;346207;28;82372;-94
2023/06/14 00:18:53;;;;;;;;;;;20.00;99.90;20.10;98792.00;;;;343898;28;86670;-95
2023/06/14 00:19:10;;;;;;;;;;;20.00;99.90;20.10;98797.00;;;;346483;28;82543;-95
2023/06/14 00:19:25;;;;;;;;;;;20.00;99.90;20.10;98794.00;;;;347864;28;85317;-94
2023/06/14 00:19:40;;;;;;;;;;;20.00;99.90;20.00;98795.00;;;;347694;28;83398;-95
2023/06/14 00:19:54;;;;;;;;;;;20.00;99.90;20.00;98783.00;;;;346260;28;85935;-95
2023/06/14 00:20:06;;;;;;;;;;;20.00;99.90;20.10;98788.00;;;;348782;27;82584;-93
2023/06/14 00:20:18;;;;;;;;;;;20.00;99.90;20.20;98781.00;;;;344336;28;85750;-94
2023/06/14 00:20:32;;;;;;;;;;;20.00;99.90;20.10;98779.00;;;;344684;28;82486;-94
2023/06/14 00:20:46;;;;;;;;;;;20.00;99.90;20.00;98785.00;;;;347055;28;86438;-96
2023/06/14 00:20:58;;;;;;;;;;;20.00;99.90;20.00;98785.00;;;;345876;28;82319;-95
2023/06/14 00:21:10;;;;;;;;;;;20.00;99.90;20.00;98778.00;;;;343094;28;87528;-94
2023/06/14 00:21:22;;;;;;;;;;;20.00;99.90;20.10;98784.00;;;;345911;28;83150;-94
2023/06/14 00:21:34;;;;;;;;;;;20.00;99.90;20.00;98792.00;;;;347530;28;86540;-94
2023/06/14 00:21:46;;;;;;;;;;;20.00;99.90;20.10;98788.00;;;;344658;28;82644;-95
2023/06/14 00:21:59;;;;;;;;;;;20.00;99.90;20.10;98781.00;;;;346180;28;85844;-93
2023/06/14 00:22:12;;;;;;;;;;;20.00;99.90;20.10;98787.00;;;;346327;28;82586;-96
2023/06/14 00:22:25;;;;;;;;;;;20.00;99.90;20.20;98785.00;;;;348884;27;85665;-96
2023/06/14 00:22:37;;;;;;;;;;;20.00;99.90;20.20;98783.00;;;;345948;28;82636;-96
2023/06/14 00:22:50;;;;;;;;;;;20.00;99.90;20.10;98795.00;;;;346246;28;86488;-95
2023/06/14 00:23:01;;;;;;;;;;;20.00;99.90;20.10;98785.00;;;;344528;28;82567;-95
2023/06/14 00:23:14;;;;;;;;;;;20.00;99.90;20.10;98791.00;;;;345856;28;86489;-96
2023/06/14 00:23:27;;;;;;;;;;;20.00;99.90;20.00;98796.00;;;;346051;28;82400;-95
2023/06/14 00:23:39;;;;;;;;;;;20.00;99.90;19.90;98793.00;;;;348658;27;85389;-94
2023/06/14 00:23:51;;;;;;;;;;;20.00;99.90;19.90;98795.00;;;;343683;28;82626;-95
2023/06/14 00:24:05;;;;;;;;;;;20.00;99.90;20.10;98797.00;;;;346184;28;85407;-94
2023/06/14 00:24:17;;;;;;;;;;;20.00;99.90;20.00;98788.00;;;;344962;28;82579;-94
2023/06/14 00:24:30;;;;;;;;;;;20.00;99.90;20.10;98785.00;;;;344998;28;85749;-95
2023/06/14 00:24:44;;;;;;;;;;;20.00;99.90;20.00;98786.00;;;;344936;28;83537;-94
2023/06/14 00:24:57;;;;;;;;;;;20.00;99.90;20.00;98782.00;;;;344706;28;85477;-93
2023/06/14 00:25:19;;;;;;;;;;;20.00;99.90;20.00;98776.00;;;;345194;28;82518;-95
2023/06/14 00:25:39;;;;;;;;;;;20.00;99.90;20.00;98785.00;;;;344847;28;85696;-93
2023/06/14 00:25:52;;;;;;;;;;;20.00;99.90;19.90;98782.00;;;;342361;28;82531;-94
2023/06/14 00:26:06;;;;;;;;;;;20.00;99.90;20.00;98784.00;;;;343355;28;84539;-95
2023/06/14 00:26:18;;;;;;;;;;;20.00;99.90;20.00;98786.00;;;;344791;28;82575;-94
2023/06/14 00:26:30;;;;;;;;;;;20.00;99.90;19.90;98780.00;;;;344726;28;86309;-94
2023/06/14 00:26:43;;;;;;;;;;;19.90;99.90;20.10;98779.00;;;;346286;28;82436;-94
2023/06/14 00:26:59;;;;;;;;;;;19.90;99.90;20.10;98786.00;;;;347722;28;84237;-94
2023/06/14 00:27:11;;;;;;;;;;;20.00;99.90;20.10;98793.00;;;;344985;28;82540;-95
2023/06/14 00:27:24;;;;;;;;;;;20.00;99.90;20.10;98780.00;;;;346277;28;86376;-95
2023/06/14 00:27:39;;;;;;;;;;;20.00;99.90;20.20;98782.00;;;;346380;28;82663;-93
2023/06/14 00:27:51;;;;;;;;;;;20.00;99.90;20.10;98779.00;;;;343556;28;86381;-94
2023/06/14 00:28:04;;;;;;;;;;;20.00;99.90;20.10;98786.00;;;;346235;28;83373;-94
2023/06/14 00:28:16;;;;;;;;;;;20.00;99.90;20.20;98782.00;;;;344860;28;86082;-94
2023/06/14 00:28:28;;;;;;;;;;;20.00;99.90;20.10;98781.00;;;;345004;28;82587;-94
2023/06/14 00:28:42;;;;;;;;;;;20.00;99.90;20.00;98784.00;;;;346174;28;85065;-93
2023/06/14 00:28:56;;;;;;;;;;;20.00;99.90;20.10;98791.00;;;;347872;28;82462;-94
2023/06/14 00:29:10;;;;;;;;;;;20.00;99.90;20.10;98784.00;;;;346317;28;85141;-95
2023/06/14 00:29:22;;;;;;;;;;;20.00;99.90;20.10;98785.00;;;;347652;28;82331;-94
2023/06/14 00:29:35;;;;;;;;;;;20.00;99.90;20.10;98780.00;;;;347689;28;84990;-94
2023/06/14 00:29:47;;;;;;;;;;;20.00;99.90;20.10;98785.00;;;;346386;28;82476;-94
2023/06/14 00:29:59;;;;;;;;;;;20.00;99.90;20.20;98794.00;;;;343711;28;83919;-92
2023/06/14 00:30:12;;;;;;;;;;;20.00;99.90;20.20;98784.00;;;;345043;28;82546;-95
2023/06/14 00:30:38;;;;;;;;;;;20.00;99.90;20.20;98786.00;;;;345978;28;85085;-95
2023/06/14 00:30:50;;;;;;;;;;;20.00;99.90;20.10;98781.00;;;;343735;28;82475;-94
2023/06/14 00:31:16;;;;;;;;;;;20.00;99.90;20.10;98780.00;;;;344905;28;85385;-94
2023/06/14 00:31:30;;;;;;;;;;;20.00;99.90;20.00;98786.00;;;;343984;28;82512;-95
2023/06/14 00:31:42;;;;;;;;;;;20.00;99.90;20.00;98783.00;;;;343505;28;85685;-95
2023/06/14 00:32:08;;;;;;;;;;;20.00;99.90;20.00;98785.00;;;;345935;28;82678;-95
2023/06/14 00:32:25;;;;;;;;;;;20.00;99.90;20.10;98780.00;;;;344752;28;86735;-96
2023/06/14 00:32:37;;;;;;;;;;;19.90;99.90;19.90;98782.00;;;;343805;28;82338;-95
2023/06/14 00:32:53;;;;;;;;;;;20.00;99.90;20.00;98780.00;;;;346112;28;85281;-95
2023/06/14 00:33:07;;;;;;;;;;;19.90;99.90;20.00;98783.00;;;;344835;28;82547;-95
2023/06/14 00:33:20;;;;;;;;;;;19.90;99.90;20.10;98781.00;;;;344748;28;86678;-96
2023/06/14 00:33:33;;;;;;;;;;;19.90;99.90;20.10;98791.00;;;;345087;28;82463;-95
2023/06/14 00:33:48;;;;;;;;;;;20.00;99.90;20.00;98782.00;;;;344971;28;86468;-95
2023/06/14 00:34:00;;;;;;;;;;;20.00;99.90;19.90;98786.00;;;;343846;28;82439;-94
2023/06/14 00:34:16;;;;;;;;;;;19.90;99.90;19.90;98778.00;;;;343635;28;86513;-96
2023/06/14 00:34:33;;;;;;;;;;;19.90;99.90;20.00;98784.00;;;;348083;28;82523;-94
2023/06/14 00:34:59;;;;;;;;;;;19.90;99.90;20.00;98779.00;;;;345262;28;85038;-95
2023/06/14 00:35:25;;;;;;;;;;;19.90;99.90;20.00;98784.00;;;;344512;28;82528;-94
2023/06/14 00:35:37;;;;;;;;;;;19.90;99.90;20.00;98776.00;;;;346002;28;85545;-94
2023/06/14 00:35:53;;;;;;;;;;;19.90;99.90;19.90;98780.00;;;;346648;28;82463;-94
2023/06/14 00:36:06;;;;;;;;;;;19.90;99.90;19.90;98783.00;;;;348973;27;85484;-95
2023/06/14 00:36:18;;;;;;;;;;;19.90;99.90;19.90;98779.00;;;;345255;28;82576;-94
2023/06/14 00:36:31;;;;;;;;;;;19.90;99.90;19.90;98779.00;;;;345214;28;86163;-94
2023/06/14 00:36:56;;;;;;;;;;;19.90;99.90;20.00;98784.00;;;;345702;28;82720;-95
2023/06/14 00:37:09;;;;;;;;;;;19.90;99.90;20.00;98791.00;;;;344723;28;86679;-95
2023/06/14 00:37:22;;;;;;;;;;;19.90;99.90;20.00;98775.00;;;;345338;28;82460;-95
2023/06/14 00:37:34;;;;;;;;;;;19.90;99.90;20.00;98783.00;;;;346204;28;85869;-94
2023/06/14 00:37:47;;;;;;;;;;;19.90;99.90;20.00;98784.00;;;;347843;28;82495;-94
2023/06/14 00:37:59;;;;;;;;;;;19.90;99.90;20.00;98777.00;;;;344897;28;85246;-94
2023/06/14 00:38:11;;;;;;;;;;;19.90;99.90;20.00;98785.00;;;;345021;28;83542;-95
2023/06/14 00:38:24;;;;;;;;;;;19.90;99.90;19.90;98779.00;;;;346301;28;85254;-94
2023/06/14 00:38:39;;;;;;;;;;;19.90;99.90;19.90;98783.00;;;;345265;28;82570;-95
2023/06/14 00:38:51;;;;;;;;;;;19.90;99.90;19.90;98784.00;;;;344621;28;86239;-95
2023/06/14 00:39:03;;;;;;;;;;;19.90;99.90;19.90;98782.00;;;;346458;28;82302;-95
2023/06/14 00:39:16;;;;;;;;;;;19.90;99.90;19.90;98782.00;;;;346042;28;86753;-95
2023/06/14 00:39:28;;;;;;;;;;;19.90;99.90;19.90;98779.00;;;;344935;28;82544;-93
2023/06/14 00:39:42;;;;;;;;;;;19.90;99.90;19.90;98774.00;;;;344836;28;86018;-94
2023/06/14 00:39:55;;;;;;;;;;;19.90;99.90;20.00;98778.00;;;;346228;28;82573;-94
2023/06/14 00:40:07;;;;;;;;;;;19.90;99.90;19.90;98781.00;;;;346053;28;85378;-95
2023/06/14 00:40:19;;;;;;;;;;;19.90;99.90;19.80;98780.00;;;;344857;28;82585;-95
2023/06/14 00:40:32;;;;;;;;;;;19.90;99.90;19.80;98778.00;;;;345934;28;85335;-94
2023/06/14 00:40:45;;;;;;;;;;;19.90;99.90;19.80;98780.00;;;;344817;28;82471;-95
2023/06/14 00:40:57;;;;;;;;;;;19.80;99.90;19.90;98782.00;;;;344654;28;85292;-95
2023/06/14 00:41:10;;;;;;;;;;;19.80;99.90;20.00;98776.00;;;;346148;28;82568;-96
2023/06/14 00:41:23;;;;;;;;;;;19.80;99.90;20.00;98779.00;;;;344853;28;85151;-95
2023/06/14 00:41:35;;;;;;;;;;;19.90;99.90;19.90;98782.00;;;;344860;28;82511;-95
2023/06/14 00:41:47;;;;;;;;;;;19.80;99.90;19.90;98781.00;;;;344828;28;85420;-95
2023/06/14 00:42:00;;;;;;;;;;;19.80;99.90;19.90;98777.00;;;;344926;28;82468;-95
2023/06/14 00:42:23;;;;;;;;;;;19.80;99.90;19.90;98778.00;;;;347624;28;83454;-94
2023/06/14 00:42:39;;;;;;;;;;;19.80;99.90;19.90;98784.00;;;;344854;28;82503;-94
2023/06/14 00:42:51;;;;;;;;;;;19.80;99.90;20.00;98784.00;;;;344465;28;85454;-95
2023/06/14 00:43:05;;;;;;;;;;;19.80;99.90;20.10;98777.00;;;;346261;28;83375;-94
2023/06/14 00:43:17;;;;;;;;;;;19.80;99.90;20.00;98779.00;;;;346470;28;84202;-94
2023/06/14 00:43:31;;;;;;;;;;;19.80;99.90;20.00;98786.00;;;;344970;28;82552;-96
2023/06/14 00:43:47;;;;;;;;;;;19.80;99.90;20.00;98793.00;;;;343565;28;85545;-95
2023/06/14 00:44:13;;;;;;;;;;;19.80;99.90;19.90;98772.00;;;;343114;28;82413;-95
2023/06/14 00:44:33;;;;;;;;;;;19.80;99.90;20.00;98783.00;;;;346120;28;85470;-94
2023/06/14 00:44:46;;;;;;;;;;;19.80;99.90;20.00;98779.00;;;;344916;28;82500;-95
2023/06/14 00:44:59;;;;;;;;;;;19.80;99.90;20.10;98777.00;;;;346178;28;86257;-94
2023/06/14 00:45:12;;;;;;;;;;;19.90;99.90;20.00;98784.00;;;;346554;28;83386;-94
2023/06/14 00:45:26;;;;;;;;;;;19.90;99.90;20.00;98779.00;;;;343598;28;85424;-95
2023/06/14 00:45:38;;;;;;;;;;;19.80;99.90;20.00;98781.00;;;;345224;28;82548;-94
2023/06/14 00:45:51;;;;;;;;;;;19.80;99.90;20.00;98774.00;;;;343650;28;85910;-96
2023/06/14 00:46:12;;;;;;;;;;;19.80;99.90;20.00;98781.00;;;;344973;28;82600;-95
2023/06/14 00:46:29;;;;;;;;;;;19.90;99.90;20.10;98781.00;;;;344960;28;84096;-96
2023/06/14 00:46:41;;;;;;;;;;;19.80;99.90;20.10;98779.00;;;;346670;28;83332;-95
2023/06/14 00:46:57;;;;;;;;;;;19.90;99.90;20.10;98788.00;;;;347719;28;87760;-95
2023/06/14 00:47:09;;;;;;;;;;;19.90;99.90;20.00;98784.00;;;;343787;28;83406;-95
2023/06/14 00:47:21;;;;;;;;;;;19.80;99.90;19.90;98781.00;;;;344820;28;85196;-94
2023/06/14 00:47:35;;;;;;;;;;;19.90;99.90;19.90;98779.00;;;;346406;28;82542;-95
2023/06/14 00:47:47;;;;;;;;;;;19.90;99.90;20.00;98783.00;;;;342199;28;86173;-94
2023/06/14 00:48:00;;;;;;;;;;;19.80;99.90;20.00;98775.00;;;;346507;28;82418;-95
2023/06/14 00:48:26;;;;;;;;;;;19.90;99.90;20.00;98782.00;;;;347563;28;85147;-95
2023/06/14 00:48:39;;;;;;;;;;;19.90;99.90;19.90;98780.00;;;;344838;28;82583;-95
2023/06/14 00:48:52;;;;;;;;;;;19.90;99.90;19.90;98783.00;;;;347416;28;86413;-95
2023/06/14 00:49:04;;;;;;;;;;;19.90;99.90;20.00;98783.00;;;;346238;28;82580;-94
2023/06/14 00:49:17;;;;;;;;;;;19.80;99.90;19.90;98779.00;;;;346042;28;86827;-94
2023/06/14 00:49:29;;;;;;;;;;;19.80;99.90;19.90;98783.00;;;;347617;28;82557;-95
2023/06/14 00:49:42;;;;;;;;;;;19.80;99.90;20.00;98782.00;;;;343302;28;84249;-94
2023/06/14 00:49:55;;;;;;;;;;;19.80;99.90;19.90;98781.00;;;;344946;28;82512;-95
2023/06/14 00:50:09;;;;;;;;;;;19.80;99.90;20.00;98787.00;;;;343277;28;85049;-94
2023/06/14 00:50:23;;;;;;;;;;;19.80;99.90;20.00;98781.00;;;;349063;27;82540;-94
2023/06/14 00:50:36;;;;;;;;;;;19.80;99.90;20.00;98776.00;;;;346098;28;85696;-95
2023/06/14 00:50:49;;;;;;;;;;;19.80;99.90;19.90;98782.00;;;;343745;28;82510;-95
2023/06/14 00:51:03;;;;;;;;;;;19.80;99.90;19.90;98779.00;;;;349346;27;83847;-94
2023/06/14 00:51:15;;;;;;;;;;;19.80;99.90;19.90;98781.00;;;;345343;28;82383;-95
2023/06/14 00:51:28;;;;;;;;;;;19.80;99.90;19.90;98781.00;;;;343431;28;85174;-94
2023/06/14 00:51:40;;;;;;;;;;;19.80;99.90;19.90;98782.00;;;;344961;28;83402;-95
2023/06/14 00:51:52;;;;;;;;;;;19.80;99.90;19.90;98781.00;;;;343742;28;85253;-96
2023/06/14 00:52:06;;;;;;;;;;;19.80;99.90;19.90;98794.00;;;;344900;28;83401;-95
2023/06/14 00:52:18;;;;;;;;;;;19.80;99.90;19.90;98786.00;;;;346215;28;85662;-94
2023/06/14 00:52:32;;;;;;;;;;;19.80;99.90;19.90;98779.00;;;;345987;28;82532;-95
2023/06/14 00:52:45;;;;;;;;;;;19.80;99.90;19.90;98783.00;;;;344799;28;86486;-95
2023/06/14 00:52:57;;;;;;;;;;;19.80;99.90;19.90;98780.00;;;;343432;28;82566;-95
2023/06/14 00:53:09;;;;;;;;;;;19.80;99.90;19.90;98782.00;;;;346541;28;86067;-95
2023/06/14 00:53:22;;;;;;;;;;;19.80;99.90;20.10;98786.00;;;;343940;28;82416;-94
2023/06/14 00:53:35;;;;;;;;;;;19.80;99.90;20.00;98782.00;;;;346163;28;85063;-95
2023/06/14 00:54:01;;;;;;;;;;;19.80;99.90;20.00;98773.00;;;;346594;28;82458;-94
2023/06/14 00:54:13;;;;;;;;;;;19.90;99.90;20.00;98774.00;;;;346501;28;84886;-94
2023/06/14 00:54:25;;;;;;;;;;;19.80;99.90;20.00;98776.00;;;;345670;28;82543;-94
2023/06/14 00:54:39;;;;;;;;;;;19.90;99.90;20.00;98781.00;;;;347993;28;86222;-94
2023/06/14 00:54:52;;;;;;;;;;;19.90;99.90;20.00;98776.00;;;;346947;28;82448;-94
2023/06/14 00:55:05;;;;;;;;;;;19.80;99.90;20.00;98779.00;;;;345408;28;86107;-93
2023/06/14 00:55:18;;;;;;;;;;;19.80;99.90;20.00;98775.00;;;;346721;28;82571;-94
2023/06/14 00:55:32;;;;;;;;;;;19.90;99.90;19.90;98774.00;;;;346879;28;86468;-94
2023/06/14 00:55:44;;;;;;;;;;;19.80;99.90;19.90;98779.00;;;;346606;28;82481;-94
2023/06/14 00:55:56;;;;;;;;;;;19.80;99.90;19.90;98778.00;;;;346489;28;85289;-94
2023/06/14 00:56:09;;;;;;;;;;;19.80;99.90;20.00;98785.00;;;;346765;28;82481;-94
2023/06/14 00:56:23;;;;;;;;;;;19.90;99.90;20.00;98779.00;;;;345131;28;85101;-94
2023/06/14 00:56:40;;;;;;;;;;;19.90;99.90;19.90;98786.00;;;;345367;28;82574;-94
2023/06/14 00:56:52;;;;;;;;;;;19.80;99.90;19.90;98776.00;;;;347703;28;86228;-94
2023/06/14 00:57:05;;;;;;;;;;;19.80;99.90;19.80;98764.00;;;;345254;28;82558;-93
2023/06/14 00:57:17;;;;;;;;;;;19.80;99.90;19.80;98780.00;;;;343932;28;86028;-94
2023/06/14 00:57:30;;;;;;;;;;;19.80;99.90;19.80;98785.00;;;;346711;28;82600;-93
2023/06/14 00:57:42;;;;;;;;;;;19.80;99.90;19.80;98782.00;;;;345729;28;86251;-94
2023/06/14 00:57:56;;;;;;;;;;;19.80;99.90;19.80;98784.00;;;;346455;28;82588;-94
2023/06/14 00:58:10;;;;;;;;;;;19.80;99.90;19.90;98777.00;;;;346695;28;86489;-94
2023/06/14 00:58:23;;;;;;;;;;;19.80;99.90;19.80;98782.00;;;;346438;28;82556;-94
2023/06/14 00:58:36;;;;;;;;;;;19.80;99.90;19.80;98774.00;;;;346036;28;84841;-95
2023/06/14 00:58:49;;;;;;;;;;;19.80;99.90;19.80;98784.00;;;;344865;28;82551;-94
2023/06/14 00:59:01;;;;;;;;;;;19.80;99.90;19.80;98777.00;;;;346201;28;85486;-95
2023/06/14 00:59:15;;;;;;;;;;;19.80;99.90;19.80;98775.00;;;;348091;28;82538;-95
2023/06/14 00:59:28;;;;;;;;;;;19.80;99.90;20.00;98776.00;;;;346127;28;86682;-95
2023/06/14 00:59:43;;;;;;;;;;;19.80;99.90;20.00;98777.00;;;;346249;28;82776;-94
2023/06/14 00:59:57;;;;;;;;;;;19.80;99.90;20.00;98782.00;;;;345115;28;83155;-95
2023/06/14 01:00:10;;;;;;;;;;;19.80;99.90;20.00;98781.00;;;;344768;28;82650;-95
2023/06/14 01:00:22;;;;;;;;;;;19.80;99.90;20.00;98778.00;;;;344676;28;87069;-95
2023/06/14 01:00:34;;;;;;;;;;;19.80;99.90;20.10;98774.00;;;;345944;28;82659;-95
2023/06/14 01:00:46;;;;;;;;;;;19.80;99.90;20.00;98779.00;;;;344500;28;85444;-94
2023/06/14 01:00:58;;;;;;;;;;;19.80;99.90;20.00;98775.00;;;;343393;28;82537;-94
2023/06/14 01:01:10;;;;;;;;;;;19.80;99.90;20.00;98768.00;;;;346864;28;85914;-96
2023/06/14 01:01:23;;;;;;;;;;;19.80;99.90;19.90;98781.00;;;;345862;28;82524;-95
2023/06/14 01:01:36;;;;;;;;;;;19.80;99.90;19.90;98778.00;;;;348635;27;85327;-95
2023/06/14 01:01:48;;;;;;;;;;;19.80;99.90;20.00;98770.00;;;;344601;28;82523;-94
2023/06/14 01:02:01;;;;;;;;;;;19.80;99.90;20.00;98791.00;;;;344837;28;87009;-95
2023/06/14 01:02:14;;;;;;;;;;;19.80;99.90;19.90;98778.00;;;;343146;28;82498;-95
2023/06/14 01:02:26;;;;;;;;;;;19.80;99.90;20.00;98772.00;;;;344898;28;84637;-94
2023/06/14 01:02:39;;;;;;;;;;;19.80;99.90;20.00;98774.00;;;;343412;28;82534;-95
2023/06/14 01:02:51;;;;;;;;;;;19.80;99.90;20.00;98779.00;;;;345777;28;86639;-95
2023/06/14 01:03:03;;;;;;;;;;;19.80;99.90;20.00;98778.00;;;;344689;28;82533;-95
2023/06/14 01:03:21;;;;;;;;;;;19.80;99.90;19.90;98779.00;;;;344645;28;86748;-95
2023/06/14 01:03:34;;;;;;;;;;;19.80;99.90;19.90;98771.00;;;;347293;28;82567;-95
2023/06/14 01:03:47;;;;;;;;;;;19.80;99.90;19.90;98778.00;;;;344795;28;85353;-95
2023/06/14 01:04:01;;;;;;;;;;;19.80;99.90;20.00;98773.00;;;;346250;28;82607;-96
2023/06/14 01:04:13;;;;;;;;;;;19.80;99.90;20.00;98770.00;;;;343256;28;84810;-95
2023/06/14 01:04:27;;;;;;;;;;;19.80;99.90;20.00;98772.00;;;;343890;28;82545;-95
2023/06/14 01:04:41;;;;;;;;;;;19.80;99.90;19.90;98773.00;;;;344928;28;84789;-95
2023/06/14 01:04:53;;;;;;;;;;;19.80;99.90;19.90;98774.00;;;;346383;28;82412;-96
2023/06/14 01:05:06;;;;;;;;;;;19.80;99.90;19.90;98771.00;;;;344687;28;85544;-96
2023/06/14 01:05:19;;;;;;;;;;;19.80;99.90;19.90;98774.00;;;;344998;28;83360;-95
2023/06/14 01:05:33;;;;;;;;;;;19.80;99.90;19.90;98778.00;;;;346195;28;87024;-96
2023/06/14 01:05:48;;;;;;;;;;;19.80;99.90;19.90;98774.00;;;;347859;27;82561;-94
2023/06/14 01:06:29;;;;;;;;;;;19.80;99.90;19.90;98771.00;;;;345239;28;83603;-95
2023/06/14 01:06:51;;;;;;;;;;;19.80;99.90;19.90;98771.00;;;;344898;28;82505;-95
2023/06/14 01:07:23;;;;;;;;;;;19.80;99.90;19.80;98783.00;;;;344643;28;86786;-95
2023/06/14 01:08:00;;;;;;;;;;;19.80;99.90;19.90;98782.00;;;;344957;28;82664;-95
2023/06/14 01:08:30;;;;;;;;;;;19.80;99.90;19.70;98780.00;;;;344976;28;85960;-95
2023/06/14 01:08:51;;;;;;;;;;;19.80;99.90;19.70;98777.00;;;;346958;28;82521;-95
2023/06/14 01:09:16;;;;;;;;;;;19.80;99.90;19.80;98765.00;;;;343832;28;86705;-95
2023/06/14 01:09:37;;;;;;;;;;;19.80;99.90;19.70;98775.00;;;;342794;28;82495;-95
2023/06/14 01:10:26;;;;;;;;;;;19.70;99.90;19.70;98771.00;;;;345081;28;86191;-95
2023/06/14 01:10:53;;;;;;;;;;;19.70;99.90;19.60;98777.00;;;;342293;28;83465;-94
2023/06/14 01:11:08;;;;;;;;;;;19.70;99.90;19.60;98769.00;;;;342382;28;86214;-95
2023/06/14 01:11:23;;;;;;;;;;;19.70;99.90;19.60;98776.00;;;;343809;28;82595;-95
2023/06/14 01:11:45;;;;;;;;;;;19.70;99.90;19.60;98774.00;;;;345298;28;85450;-96
2023/06/14 01:12:12;;;;;;;;;;;19.70;99.90;19.60;98767.00;;;;345548;28;83426;-95
2023/06/14 01:12:50;;;;;;;;;;;19.60;99.90;19.90;98774.00;;;;345449;28;85723;-94
2023/06/14 01:13:23;;;;;;;;;;;19.60;99.90;19.80;98767.00;;;;342530;28;82581;-96
2023/06/14 01:13:40;;;;;;;;;;;19.70;99.90;19.80;98766.00;;;;345380;28;85347;-96
2023/06/14 01:13:53;;;;;;;;;;;19.70;99.90;19.80;98751.00;;;;344426;28;82545;-96
2023/06/14 01:14:05;;;;;;;;;;;19.60;99.90;19.70;98766.00;;;;345565;28;83743;-95
2023/06/14 01:14:17;;;;;;;;;;;19.70;99.90;19.80;98776.00;;;;345473;28;82481;-95
2023/06/14 01:14:30;;;;;;;;;;;19.60;99.90;19.80;98762.00;;;;344003;28;87220;-96
2023/06/14 01:14:42;;;;;;;;;;;19.60;99.90;19.60;98768.00;;;;345334;28;82521;-96
2023/06/14 01:14:54;;;;;;;;;;;19.60;99.90;19.60;98771.00;;;;345527;28;84338;-94
2023/06/14 01:15:14;;;;;;;;;;;19.60;99.90;19.60;98755.00;;;;342926;28;82473;-95
2023/06/14 01:15:26;;;;;;;;;;;19.60;99.90;19.60;98761.00;;;;346549;28;84133;-96
2023/06/14 01:15:43;;;;;;;;;;;19.60;99.90;19.70;98765.00;;;;345247;28;83446;-94